Time;durP1;ratioP1;P1;durP2;ratioP2;P2;SDS_P1;SDS_P2;PMS_P1;PMS_P2;Temp;Humidity;BMP_temperature;BMP_pressure;BME280_temperature;BME280_humidity;BME280_pressure;Samples;Min_cycle;Max_cycle;Signal;HPM_P1;HPM_P2
2022/11/21 00:01:15;;;;;;;;;1.25;1.00;;;;;8.75;78.26;100897.22;5094716;27;45469;-83
2022/11/21 00:03:40;;;;;;;;;2.00;0.75;;;;;8.72;78.12;100899.84;5095315;27;45413;-83
2022/11/21 00:06:06;;;;;;;;;1.00;0.25;;;;;8.73;77.97;100906.78;5094955;27;67253;-84
2022/11/21 00:08:31;;;;;;;;;5.00;1.00;;;;;8.73;77.91;100904.19;5095559;27;55339;-83
2022/11/21 00:10:59;;;;;;;;;5.25;1.00;;;;;8.72;77.57;100899.84;5095160;27;61292;-83
2022/11/21 00:13:25;;;;;;;;;2.00;2.00;;;;;8.70;77.89;100891.25;5094650;27;47204;-84
2022/11/21 00:15:50;;;;;;;;;4.25;2.00;;;;;8.66;77.64;100895.63;5093956;27;45374;-84
2022/11/21 00:18:16;;;;;;;;;0.75;0.75;;;;;8.66;78.12;100894.78;5095953;27;45258;-83
2022/11/21 00:20:42;;;;;;;;;0.00;0.00;;;;;8.65;78.34;100891.31;5099418;27;45484;-83
2022/11/21 00:23:08;;;;;;;;;2.25;0.75;;;;;8.65;78.22;100899.09;5098894;27;46256;-82
2022/11/21 00:25:33;;;;;;;;;5.00;1.00;;;;;8.66;78.39;100882.66;5080829;27;45390;-84
2022/11/21 00:27:59;;;;;;;;;1.00;0.00;;;;;8.68;78.54;100869.66;5080699;27;45343;-83
2022/11/21 00:30:25;;;;;;;;;5.00;1.75;;;;;8.71;78.25;100867.88;5099036;27;45213;-83
2022/11/21 00:32:51;;;;;;;;;0.25;0.25;;;;;8.77;78.42;100871.25;5080319;27;45412;-82
2022/11/21 00:35:16;;;;;;;;;2.00;0.25;;;;;8.81;78.19;100867.69;5097011;27;45520;-83
2022/11/21 00:37:41;;;;;;;;;3.25;1.00;;;;;8.85;77.99;100861.56;5098590;27;45330;-83
2022/11/21 00:40:07;;;;;;;;;4.25;1.00;;;;;8.87;78.25;100858.03;5097517;27;66739;-83
2022/11/21 00:42:33;;;;;;;;;1.00;1.00;;;;;8.92;77.88;100855.34;5098292;27;45447;-83
2022/11/21 00:44:58;;;;;;;;;4.50;2.00;;;;;8.94;78.04;100845.78;5098913;27;45440;-83
2022/11/21 00:47:23;;;;;;;;;10.00;1.50;;;;;8.96;78.16;100837.97;5080117;27;57598;-83
2022/11/21 00:49:49;;;;;;;;;5.75;1.75;;;;;8.95;77.54;100839.69;5080562;27;45515;-83
2022/11/21 00:52:16;;;;;;;;;2.75;1.00;;;;;8.94;77.86;100845.78;5097687;27;68640;-84
2022/11/21 00:54:41;;;;;;;;;2.00;1.00;;;;;8.91;78.02;100843.25;5080593;27;45663;-83
2022/11/21 00:57:06;;;;;;;;;5.00;0.75;;;;;8.92;78.30;100839.78;5097548;27;61879;-83
2022/11/21 00:59:32;;;;;;;;;2.25;1.50;;;;;8.94;78.15;100838.00;5098119;27;56785;-83
2022/11/21 01:01:57;;;;;;;;;2.00;1.00;;;;;8.93;78.10;100825.91;5098223;27;46583;-83
2022/11/21 01:04:23;;;;;;;;;3.75;1.00;;;;;8.89;78.17;100824.25;5098020;27;69363;-83
2022/11/21 01:06:48;;;;;;;;;8.25;1.25;;;;;8.83;78.28;100820.03;5098593;27;45404;-83
2022/11/21 01:09:13;;;;;;;;;1.50;1.25;;;;;8.80;78.49;100817.50;5097721;27;61062;-83
2022/11/21 01:11:38;;;;;;;;;1.75;1.25;;;;;8.80;78.44;100812.31;5097097;27;70803;-83
2022/11/21 01:14:04;;;;;;;;;3.25;1.00;;;;;8.81;78.45;100814.03;5097425;27;72848;-83
2022/11/21 01:16:30;;;;;;;;;3.25;1.75;;;;;8.82;78.36;100812.28;5080227;27;45817;-83
2022/11/21 01:18:56;;;;;;;;;0.75;0.75;;;;;8.81;78.65;100808.84;5080132;27;45296;-83
2022/11/21 01:21:24;;;;;;;;;0.00;0.00;;;;;8.78;78.78;100806.28;5079808;27;46355;-83
2022/11/21 01:23:50;;;;;;;;;2.00;2.00;;;;;8.76;78.89;100800.28;5080040;27;45644;-83
2022/11/21 01:26:21;;;;;;;;;2.00;0.25;;;;;8.76;78.93;100802.88;5097920;27;45236;-83
2022/11/21 01:28:46;;;;;;;;;1.00;0.50;;;;;8.75;79.15;100801.19;5079974;27;45309;-83
2022/11/21 01:31:21;;;;;;;;;1.25;1.00;;;;;8.76;78.95;100800.28;5097087;27;47125;-83
2022/11/21 01:33:46;;;;;;;;;1.75;1.75;;;;;8.77;79.00;100798.56;5079869;27;45719;-83
2022/11/21 01:36:12;;;;;;;;;1.00;1.00;;;;;8.78;78.90;100792.47;5079986;27;45475;-83
2022/11/21 01:38:38;;;;;;;;;4.50;1.75;;;;;8.78;79.07;100790.72;5097756;27;45486;-83
2022/11/21 01:41:04;;;;;;;;;1.50;1.50;;;;;8.76;79.36;100782.13;5079079;27;45679;-83
2022/11/21 01:43:29;;;;;;;;;1.00;0.00;;;;;8.75;78.77;100782.16;5098007;27;45338;-83
2022/11/21 01:46:16;;;;;;;;;4.50;1.50;;;;;8.74;78.98;100778.69;5097536;27;50967;-83
2022/11/21 01:49:13;;;;;;;;;4.00;0.75;;;;;8.70;78.88;100771.88;5097356;27;45587;-83
2022/11/21 01:51:53;;;;;;;;;3.25;1.00;;;;;8.69;79.12;100773.63;5079456;27;46504;-83
2022/11/21 01:54:44;;;;;;;;;2.00;1.00;;;;;8.70;78.86;100770.13;5079145;27;45454;-83
2022/11/21 01:57:15;;;;;;;;;1.00;0.00;;;;;8.69;78.98;100760.66;5014717;28;45459;-83
2022/11/21 01:59:43;;;;;;;;;2.50;1.00;;;;;8.69;78.93;100757.19;5014727;28;45413;-83
2022/11/21 02:02:10;;;;;;;;;2.00;1.00;;;;;8.70;79.02;100756.31;5014439;28;45396;-83
2022/11/21 02:04:37;;;;;;;;;2.00;1.00;;;;;8.66;79.09;100760.69;5014607;28;45686;-83
2022/11/21 02:07:05;;;;;;;;;4.00;1.00;;;;;8.66;78.81;100755.50;5014121;28;55793;-83
2022/11/21 02:09:32;;;;;;;;;2.50;1.00;;;;;8.68;78.75;100758.06;4997856;28;45413;-83
2022/11/21 02:12:01;;;;;;;;;2.75;0.00;;;;;8.69;78.72;100752.88;5014388;28;45448;-83
2022/11/21 02:14:28;;;;;;;;;6.75;2.00;;;;;8.71;79.23;100745.91;5014564;28;45431;-83
2022/11/21 02:16:56;;;;;;;;;2.75;1.00;;;;;8.72;79.02;100737.22;5013792;28;63607;-84
2022/11/21 02:19:37;;;;;;;;;5.50;1.00;;;;;8.75;78.90;100738.91;5014522;28;45691;-83
2022/11/21 02:22:08;;;;;;;;;1.75;0.75;;;;;8.77;78.97;100733.69;5014256;28;46333;-83
2022/11/21 02:24:45;;;;;;;;;2.00;0.75;;;;;8.79;78.99;100731.91;5013937;28;46073;-83
2022/11/21 02:27:11;;;;;;;;;3.25;2.00;;;;;8.80;78.54;100718.88;5014280;28;45505;-83
2022/11/21 02:29:38;;;;;;;;;2.00;0.00;;;;;8.83;78.85;100717.97;5014117;28;49070;-83
2022/11/21 02:32:04;;;;;;;;;2.00;1.00;;;;;8.89;78.61;100720.41;5014138;28;45718;-83
2022/11/21 02:34:30;;;;;;;;;0.75;0.75;;;;;8.90;78.50;100707.41;5073346;27;45607;-83
2022/11/21 02:36:56;;;;;;;;;1.00;1.00;;;;;8.93;78.60;100710.81;5096844;27;45240;-83
2022/11/21 02:39:33;;;;;;;;;1.00;1.00;;;;;8.96;78.01;100714.19;5095893;27;62904;-83
2022/11/21 02:42:06;;;;;;;;;1.00;1.00;;;;;8.96;77.77;100713.34;5078593;27;46430;-83
2022/11/21 02:44:39;;;;;;;;;3.75;1.00;;;;;8.90;77.88;100715.19;5095877;27;45426;-83
2022/11/21 02:47:04;;;;;;;;;1.50;1.00;;;;;8.86;78.08;100716.16;5095698;27;45281;-83
2022/11/21 02:49:38;;;;;;;;;1.50;1.50;;;;;8.83;78.03;100705.84;5094878;27;65884;-83
2022/11/21 02:52:04;;;;;;;;;3.25;1.00;;;;;8.81;78.27;100698.97;5095186;27;46356;-83
2022/11/21 02:54:29;;;;;;;;;1.00;1.00;;;;;8.80;78.14;100697.25;5095603;27;45419;-83
2022/11/21 02:56:56;;;;;;;;;3.50;1.00;;;;;8.80;77.80;100689.47;5095617;27;45442;-83
2022/11/21 02:59:21;;;;;;;;;2.00;1.25;;;;;8.78;77.72;100679.13;5097018;27;45498;-83
2022/11/21 03:01:47;;;;;;;;;0.00;0.00;;;;;8.79;77.83;100687.78;5096697;27;46124;-83
2022/11/21 03:04:12;;;;;;;;;2.50;1.00;;;;;8.78;77.92;100684.31;5096093;27;64174;-83
2022/11/21 03:06:37;;;;;;;;;2.50;1.50;;;;;8.77;77.99;100686.97;5095816;27;57736;-83
2022/11/21 03:09:02;;;;;;;;;1.00;1.00;;;;;8.75;77.59;100683.53;5096749;27;45337;-83
2022/11/21 03:11:28;;;;;;;;;2.00;2.00;;;;;8.67;77.47;100689.75;5096029;27;58585;-83
2022/11/21 03:13:53;;;;;;;;;1.25;1.00;;;;;8.62;77.90;100680.38;5096501;27;46660;-83
2022/11/21 03:16:18;;;;;;;;;3.75;2.00;;;;;8.60;77.93;100677.81;5095940;27;56602;-83
2022/11/21 03:18:44;;;;;;;;;2.25;2.00;;;;;8.61;78.05;100676.06;5095816;27;62803;-83
2022/11/21 03:21:09;;;;;;;;;1.00;1.00;;;;;8.60;78.00;100653.56;5094896;27;46320;-83
2022/11/21 03:23:34;;;;;;;;;1.00;1.00;;;;;8.62;78.32;100646.66;5094148;27;72950;-83
2022/11/21 03:26:00;;;;;;;;;1.00;1.00;;;;;8.60;77.95;100640.59;5095948;27;55287;-83
2022/11/21 03:28:25;;;;;;;;;1.00;1.00;;;;;8.58;78.26;100640.66;5094743;27;56955;-83
2022/11/21 03:30:50;;;;;;;;;2.00;2.00;;;;;8.60;78.45;100638.00;5095565;27;69044;-83
2022/11/21 03:33:16;;;;;;;;;4.00;1.50;;;;;8.62;78.17;100641.44;5095522;27;67254;-83
2022/11/21 03:35:41;;;;;;;;;3.25;1.75;;;;;8.63;78.51;100633.59;5096104;27;45408;-83
2022/11/21 03:38:06;;;;;;;;;1.75;1.00;;;;;8.63;77.90;100631.00;5094319;27;53900;-82
2022/11/21 03:40:32;;;;;;;;;1.75;1.75;;;;;8.60;77.91;100628.50;5095295;27;65017;-83
2022/11/21 03:43:03;;;;;;;;;3.00;1.00;;;;;8.59;78.08;100620.75;5077656;27;48246;-83
2022/11/21 03:45:28;;;;;;;;;2.00;1.00;;;;;8.59;77.95;100615.56;5096379;27;45409;-83
2022/11/21 03:47:53;;;;;;;;;1.00;1.00;;;;;8.58;77.90;100611.25;5095364;27;66558;-83
2022/11/21 03:50:20;;;;;;;;;2.50;1.25;;;;;8.55;78.43;100600.97;5095113;27;58707;-83
2022/11/21 03:52:45;;;;;;;;;1.75;1.00;;;;;8.54;78.03;100592.31;5096137;27;45633;-83
2022/11/21 03:55:11;;;;;;;;;2.50;1.00;;;;;8.55;78.61;100593.19;5081303;27;45544;-83
2022/11/21 03:57:36;;;;;;;;;3.50;3.50;;;;;8.54;78.11;100589.72;5098839;27;63808;-83
2022/11/21 04:00:01;;;;;;;;;3.75;0.50;;;;;8.56;78.67;100590.53;5080462;27;67697;-83
2022/11/21 04:02:27;;;;;;;;;4.00;1.25;;;;;8.59;78.43;100584.44;5099279;27;45349;-83
2022/11/21 04:04:52;;;;;;;;;2.00;0.00;;;;;8.59;78.40;100572.31;5080286;27;65140;-83
2022/11/21 04:07:17;;;;;;;;;3.25;1.00;;;;;8.59;77.87;100567.13;5098804;27;64070;-83
2022/11/21 04:09:43;;;;;;;;;2.00;2.00;;;;;8.58;77.67;100554.16;5080914;27;47097;-83
2022/11/21 04:12:08;;;;;;;;;4.75;1.00;;;;;8.52;77.75;100556.03;5080358;27;65226;-83
2022/11/21 04:14:33;;;;;;;;;5.00;1.00;;;;;8.48;77.98;100551.78;5098785;27;62902;-83
2022/11/21 04:16:59;;;;;;;;;5.00;1.00;;;;;8.45;77.91;100544.09;5081048;27;45406;-83
2022/11/21 04:19:24;;;;;;;;;1.50;1.00;;;;;8.42;78.10;100538.13;5098544;27;57887;-83
2022/11/21 04:21:49;;;;;;;;;1.50;1.50;;;;;8.38;77.71;100539.06;5080050;27;62333;-83
2022/11/21 04:24:15;;;;;;;;;4.25;2.00;;;;;8.34;78.22;100528.75;5099363;27;45397;-83
2022/11/21 04:26:40;;;;;;;;;5.50;4.00;;;;;8.33;77.67;100514.06;5099037;27;46079;-83
2022/11/21 04:29:05;;;;;;;;;3.75;2.00;;;;;8.25;77.75;100523.78;5098308;27;69400;-83
2022/11/21 04:31:30;;;;;;;;;2.00;2.00;;;;;8.22;77.45;100520.38;5098402;27;62080;-82
2022/11/21 04:33:56;;;;;;;;;1.00;1.00;;;;;8.18;77.59;100516.16;5098491;27;51554;-83
2022/11/21 04:36:21;;;;;;;;;5.25;1.25;;;;;8.14;77.94;100518.81;5098964;27;45375;-83
2022/11/21 04:38:46;;;;;;;;;1.50;1.50;;;;;8.10;77.50;100511.16;5098333;27;56977;-83
2022/11/21 04:41:12;;;;;;;;;3.00;2.00;;;;;8.07;77.59;100508.63;5098269;27;52526;-83
2022/11/21 04:43:37;;;;;;;;;1.00;1.00;;;;;8.05;77.84;100502.63;5079872;27;62502;-83
2022/11/21 04:46:02;;;;;;;;;5.00;1.00;;;;;8.03;77.90;100509.59;5098984;27;45395;-83
2022/11/21 04:48:28;;;;;;;;;2.00;1.00;;;;;7.98;78.02;100498.47;5098043;27;48189;-83
2022/11/21 04:50:53;;;;;;;;;1.00;1.00;;;;;7.97;78.06;100491.56;5098269;27;60987;-83
2022/11/21 04:53:18;;;;;;;;;6.25;1.00;;;;;7.93;78.64;100486.47;5098150;27;57691;-83
2022/11/21 04:55:44;;;;;;;;;1.00;1.00;;;;;7.92;78.09;100481.31;5098640;27;45264;-83
2022/11/21 04:58:09;;;;;;;;;1.25;1.25;;;;;7.88;78.44;100474.50;5079528;27;68371;-83
2022/11/21 05:00:34;;;;;;;;;2.00;2.00;;;;;7.87;78.68;100473.63;5098681;27;45624;-83
2022/11/21 05:03:04;;;;;;;;;6.00;2.00;;;;;7.87;78.95;100468.44;5097391;27;65277;-83
2022/11/21 05:05:30;;;;;;;;;6.00;1.00;;;;;7.87;79.08;100460.66;5097457;27;45366;-83
2022/11/21 05:07:55;;;;;;;;;5.50;3.00;;;;;7.88;79.12;100449.41;5080122;27;46339;-83
2022/11/21 05:10:20;;;;;;;;;4.50;3.00;;;;;7.92;79.05;100445.03;5097781;27;64038;-83
2022/11/21 05:15:29;;;;;;;;;4.50;1.75;;;;;7.92;79.60;100434.66;5098712;27;45422;-83
2022/11/21 05:17:58;;;;;;;;;4.00;2.00;;;;;7.93;79.49;100439.81;5096885;27;75552;-83
2022/11/21 05:20:23;;;;;;;;;1.75;1.00;;;;;7.93;79.61;100429.44;5097006;27;45805;-83
2022/11/21 05:22:52;;;;;;;;;2.50;2.00;;;;;7.94;79.76;100432.88;5097670;27;59738;-83
2022/11/21 05:25:17;;;;;;;;;5.00;4.00;;;;;7.94;79.83;100438.06;5098276;27;45381;-83
2022/11/21 05:27:43;;;;;;;;;5.75;1.75;;;;;7.97;79.72;100438.00;5097297;27;69775;-83
2022/11/21 05:30:09;;;;;;;;;6.00;1.00;;;;;7.98;79.51;100439.69;5079924;27;45473;-83
2022/11/21 05:32:34;;;;;;;;;3.50;2.00;;;;;8.00;79.83;100437.06;5079715;27;45391;-83
2022/11/21 05:35:00;;;;;;;;;3.00;2.00;;;;;7.99;79.90;100436.22;5097299;27;65797;-83
2022/11/21 05:37:25;;;;;;;;;1.25;1.00;;;;;8.01;79.92;100429.25;5097150;27;71596;-83
2022/11/21 05:39:50;;;;;;;;;4.00;2.00;;;;;8.03;79.83;100440.44;5096725;27;68579;-83
2022/11/21 05:43:44;;;;;;;;;8.25;4.00;;;;;8.05;79.52;100432.63;5097199;27;65656;-83
2022/11/21 05:45:01;;;;;;;;;4.50;4.25;;;;;8.03;79.62;100427.47;5097979;27;45223;-83
2022/11/21 05:47:27;;;;;;;;;5.50;4.00;;;;;8.02;80.27;100424.91;5097390;27;45290;-83
2022/11/21 05:49:52;;;;;;;;;9.25;2.50;;;;;8.02;80.24;100425.75;5078630;27;68398;-83
2022/11/21 05:52:17;;;;;;;;;6.25;2.00;;;;;8.05;80.33;100409.31;5079079;27;56285;-83
2022/11/21 05:54:43;;;;;;;;;6.50;2.00;;;;;8.12;80.27;100409.13;5097122;27;64101;-83
2022/11/21 05:57:08;;;;;;;;;1.75;1.75;;;;;8.16;79.55;100402.13;5097634;27;46269;-83
2022/11/21 05:59:33;;;;;;;;;8.50;4.50;;;;;8.17;79.96;100390.84;5078533;27;71168;-83
2022/11/21 06:04:42;;;;;;;;;7.00;4.00;;;;;8.12;80.13;100378.00;5082298;27;45247;-83
2022/11/21 06:07:08;;;;;;;;;7.50;4.00;;;;;8.12;80.09;100378.00;5096369;27;75355;-83
2022/11/21 06:09:33;;;;;;;;;9.50;3.00;;;;;8.12;80.31;100375.41;5079342;27;45404;-83
2022/11/21 06:11:58;;;;;;;;;4.00;3.00;;;;;8.17;80.33;100364.06;5097208;27;53033;-82
2022/11/21 06:14:24;;;;;;;;;4.00;4.00;;;;;8.21;80.10;100351.00;5096511;27;68475;-83
2022/11/21 06:16:49;;;;;;;;;4.00;4.00;;;;;8.28;79.85;100341.31;5096193;27;59496;-83
2022/11/21 06:19:14;;;;;;;;;3.00;2.25;;;;;8.32;80.14;100335.16;5096472;27;69026;-83
2022/11/21 06:21:40;;;;;;;;;4.50;2.00;;;;;8.33;79.35;100323.91;5078535;27;60622;-83
2022/11/21 06:24:06;;;;;;;;;4.50;3.75;;;;;8.33;78.81;100335.13;5097439;27;45563;-83
2022/11/21 06:26:32;;;;;;;;;10.00;6.00;;;;;8.32;79.12;100332.56;5097104;27;45382;-83
2022/11/21 06:28:57;;;;;;;;;8.00;4.00;;;;;8.30;78.88;100327.44;5096547;27;55129;-83
2022/11/21 06:31:25;;;;;;;;;7.00;4.00;;;;;8.29;79.07;100328.31;5079145;27;45375;-83
2022/11/21 06:33:55;;;;;;;;;2.00;2.00;;;;;8.32;78.75;100332.56;5097301;27;45462;-83
2022/11/21 06:36:21;;;;;;;;;8.25;5.00;;;;;8.34;78.72;100330.81;5078852;27;46438;-83
2022/11/21 06:38:46;;;;;;;;;3.75;2.00;;;;;8.33;78.91;100323.91;5096812;27;45521;-83
2022/11/21 06:41:14;;;;;;;;;3.75;2.00;;;;;8.32;78.78;100327.38;5096816;27;45532;-83
2022/11/21 06:43:39;;;;;;;;;6.25;4.50;;;;;8.29;78.44;100333.50;5096722;27;45509;-83
2022/11/21 06:46:05;;;;;;;;;4.25;2.00;;;;;8.27;78.67;100314.53;5096546;27;58975;-83
2022/11/21 06:48:31;;;;;;;;;9.50;5.50;;;;;8.28;79.06;100318.84;5078591;27;45392;-83
2022/11/21 06:50:57;;;;;;;;;8.00;5.00;;;;;8.21;79.24;100314.72;5096914;27;45457;-83
2022/11/21 06:53:22;;;;;;;;;8.75;5.00;;;;;8.17;79.59;100301.84;5096941;27;45414;-83
2022/11/21 06:55:48;;;;;;;;;9.25;4.50;;;;;8.16;79.41;100289.78;5096773;27;45682;-83
2022/11/21 06:58:13;;;;;;;;;5.00;4.75;;;;;8.14;79.77;100269.09;5095628;27;67094;-83
2022/11/21 07:00:38;;;;;;;;;7.00;5.00;;;;;8.14;79.95;100262.16;5095833;27;67834;-83
2022/11/21 07:03:04;;;;;;;;;8.50;5.00;;;;;8.17;80.06;100244.81;5095984;27;59716;-83
2022/11/21 07:05:30;;;;;;;;;7.75;5.00;;;;;8.22;79.85;100237.78;5096456;27;46342;-83
2022/11/21 07:08:02;;;;;;;;;18.50;14.75;;;;;8.26;79.53;100229.00;5096604;27;45244;-83
2022/11/21 07:10:28;;;;;;;;;6.50;6.00;;;;;8.31;79.58;100222.81;5096745;27;45343;-82
2022/11/21 07:15:42;;;;;;;;;27.75;13.50;;;;;8.33;79.55;100199.44;5096452;27;45415;-83
2022/11/21 07:18:07;;;;;;;;;7.25;6.25;;;;;8.33;79.29;100199.44;5078176;27;45457;-83
2022/11/21 07:20:33;;;;;;;;;5.75;4.50;;;;;8.30;79.66;100196.91;5096301;27;46134;-83
2022/11/21 07:22:58;;;;;;;;;13.25;8.00;;;;;8.29;79.70;100197.81;5095700;27;62942;-83
2022/11/21 07:25:23;;;;;;;;;15.50;7.25;;;;;8.26;79.43;100192.72;5096406;27;45975;-83
2022/11/21 07:27:49;;;;;;;;;8.75;8.00;;;;;8.22;79.33;100181.56;5094938;27;70207;-83
2022/11/21 07:30:14;;;;;;;;;9.25;7.00;;;;;8.23;79.91;100167.72;5100059;27;45903;-82
2022/11/21 07:32:40;;;;;;;;;12.00;8.50;;;;;8.27;79.82;100173.69;5099918;27;45409;-83
2022/11/21 07:35:06;;;;;;;;;8.75;6.00;;;;;8.30;79.40;100168.38;5064744;27;47121;-82
2022/11/21 07:37:31;;;;;;;;;13.00;6.00;;;;;8.28;79.81;100171.03;5081502;27;45422;-82
2022/11/21 07:39:56;;;;;;;;;7.75;5.25;;;;;8.28;79.99;100172.75;5099512;27;45461;-83
2022/11/21 07:42:22;;;;;;;;;8.25;7.00;;;;;8.26;80.00;100164.19;5080627;27;59409;-83
2022/11/21 07:44:47;;;;;;;;;12.50;7.50;;;;;8.30;79.90;100160.59;5099310;27;59008;-82
2022/11/21 07:47:13;;;;;;;;;13.75;8.00;;;;;8.31;79.79;100150.19;5080707;27;64386;-83
2022/11/21 07:49:38;;;;;;;;;13.00;9.50;;;;;8.31;79.75;100137.22;5081491;27;45243;-84
2022/11/21 07:52:03;;;;;;;;;9.00;8.50;;;;;8.36;80.05;100125.88;5081348;27;46979;-84
2022/11/21 07:54:29;;;;;;;;;8.25;8.00;;;;;8.41;79.91;100129.19;5099662;27;46261;-82
2022/11/21 07:56:54;;;;;;;;;8.75;5.00;;;;;8.45;79.97;100125.63;5063151;27;68006;-82
2022/11/21 07:59:19;;;;;;;;;8.00;7.75;;;;;8.46;80.10;100115.22;5098917;27;60642;-82
2022/11/21 08:01:45;;;;;;;;;14.25;9.00;;;;;8.50;79.42;100095.22;5080615;27;52670;-81
2022/11/21 08:04:10;;;;;;;;;10.00;6.00;;;;;8.57;79.76;100085.50;5099057;27;53254;-81
2022/11/21 08:06:35;;;;;;;;;9.50;8.00;;;;;8.56;79.55;100070.81;5098829;27;64142;-82
2022/11/21 08:09:00;;;;;;;;;16.75;9.25;;;;;8.58;79.45;100074.22;5099372;27;45263;-83
2022/11/21 08:11:26;;;;;;;;;9.25;5.75;;;;;8.57;78.98;100081.16;5098205;27;70654;-82
2022/11/21 08:13:51;;;;;;;;;19.75;10.00;;;;;8.55;78.70;100087.31;5099264;27;45394;-82
2022/11/21 08:16:17;;;;;;;;;6.25;6.00;;;;;8.52;78.97;100085.63;5099195;27;45461;-82
2022/11/21 08:18:42;;;;;;;;;10.00;7.75;;;;;8.48;78.93;100079.69;5098731;27;55384;-82
2022/11/21 08:21:07;;;;;;;;;7.75;5.25;;;;;8.47;78.79;100084.97;5080736;27;49266;-82
2022/11/21 08:23:33;;;;;;;;;8.50;6.00;;;;;8.47;78.73;100083.19;5098290;27;63470;-82
2022/11/21 08:25:58;;;;;;;;;14.50;8.00;;;;;8.48;78.54;100079.69;5098564;27;45380;-83
2022/11/21 08:28:23;;;;;;;;;13.00;9.00;;;;;8.44;78.64;100078.09;5099223;27;45374;-82
2022/11/21 08:30:49;;;;;;;;;8.25;7.75;;;;;8.43;78.73;100075.53;5098358;27;59700;-81
2022/11/21 08:33:14;;;;;;;;;16.00;9.50;;;;;8.42;78.75;100085.06;5079673;27;71230;-81
2022/11/21 08:35:41;;;;;;;;;13.25;9.25;;;;;8.44;78.65;100088.47;5096763;27;62797;-81
2022/11/21 08:38:06;;;;;;;;;11.50;10.00;;;;;8.46;78.61;100070.28;5098011;27;45430;-81
2022/11/21 08:40:32;;;;;;;;;16.00;9.75;;;;;8.44;78.46;100070.31;5097935;27;45419;-82
2022/11/21 08:42:58;;;;;;;;;18.00;13.00;;;;;8.47;78.53;100082.34;5086521;27;47475;-82
2022/11/21 08:45:24;;;;;;;;;11.00;8.75;;;;;8.45;78.46;100071.16;5075981;27;46021;-83
2022/11/21 08:47:49;;;;;;;;;16.50;12.50;;;;;8.43;78.90;100084.19;5094921;27;45563;-83
2022/11/21 08:50:15;;;;;;;;;13.25;8.75;;;;;8.41;78.39;100070.38;5093015;27;61690;-83
2022/11/21 08:52:40;;;;;;;;;10.00;8.75;;;;;8.40;78.57;100062.66;5094778;27;56733;-82
2022/11/21 08:55:06;;;;;;;;;13.00;10.50;;;;;8.40;78.93;100060.06;5096729;27;68217;-82
2022/11/21 08:57:36;;;;;;;;;15.00;10.00;;;;;8.41;79.02;100052.22;5091709;27;45490;-81
2022/11/21 09:00:03;;;;;;;;;18.75;10.00;;;;;8.42;78.82;100033.22;5084227;27;45258;-81
2022/11/21 09:02:28;;;;;;;;;17.50;9.75;;;;;8.46;78.97;100016.66;5098032;27;46382;-83
2022/11/21 09:04:54;;;;;;;;;10.25;6.50;;;;;8.51;78.72;99998.34;5097640;27;45350;-82
2022/11/21 09:07:19;;;;;;;;;16.50;13.00;;;;;8.56;78.64;100019.78;5095364;27;45296;-84
2022/11/21 09:09:45;;;;;;;;;9.25;7.50;;;;;8.55;78.93;100030.25;5113949;27;45443;-84
2022/11/21 09:12:10;;;;;;;;;12.75;10.00;;;;;8.53;78.99;100027.69;5096018;27;45429;-81
2022/11/21 09:20:04;;;;;;;;;16.25;12.00;;;;;8.68;79.06;100003.00;5096864;27;45241;-81
2022/11/21 09:22:29;;;;;;;;;13.50;9.25;;;;;8.74;78.56;100000.19;5095628;27;45406;-80
2022/11/21 09:24:54;;;;;;;;;12.00;9.00;;;;;8.84;78.69;99979.97;5095791;27;72494;-83
2022/11/21 09:27:20;;;;;;;;;16.00;10.00;;;;;8.89;78.05;99975.47;5097089;27;45267;-83
2022/11/21 09:29:46;;;;;;;;;16.50;12.50;;;;;8.91;78.13;99965.88;5097566;27;45601;-83
2022/11/21 09:32:11;;;;;;;;;15.00;9.00;;;;;8.95;78.60;99956.25;5078798;27;48031;-82
2022/11/21 09:34:53;;;;;;;;;13.00;9.00;;;;;9.01;78.39;99950.84;5094652;27;66406;-84
2022/11/21 09:37:18;;;;;;;;;14.00;10.75;;;;;9.03;77.80;99949.06;5094740;27;45365;-81
2022/11/21 09:39:43;;;;;;;;;14.50;9.25;;;;;9.06;77.83;99926.44;5075391;27;45709;-81
2022/11/21 09:42:45;;;;;;;;;11.25;6.00;;;;;9.00;77.89;99918.00;5055551;28;72471;-82
2022/11/21 09:45:33;;;;;;;;;10.00;9.25;;;;;9.00;77.66;99902.44;5013325;28;45441;-82
2022/11/21 09:48:02;;;;;;;;;6.25;2.75;;;;;9.00;77.73;99907.63;5038747;28;45417;-82
2022/11/21 09:50:31;;;;;;;;;9.50;8.00;;;;;9.08;77.85;99890.00;5033665;28;45562;-80
2022/11/21 09:53:22;;;;;;;;;13.75;9.00;;;;;9.18;77.43;99887.94;5033301;28;45413;-80
2022/11/21 09:55:51;;;;;;;;;12.25;7.25;;;;;9.20;77.70;99865.38;5017417;28;45421;-80
2022/11/21 09:58:29;;;;;;;;;13.25;9.50;;;;;9.20;76.91;99870.56;5030287;28;45383;-81
2022/11/21 10:00:54;;;;;;;;;12.75;9.50;;;;;9.21;77.18;99867.03;5037220;28;45612;-80
2022/11/21 10:03:21;;;;;;;;;5.75;5.00;;;;;9.19;77.36;99850.66;5036660;28;47231;-80
2022/11/21 10:06:17;;;;;;;;;13.00;9.00;;;;;9.23;77.05;99831.47;5053835;28;45952;-79
2022/11/21 10:09:10;;;;;;;;;10.00;6.75;;;;;9.25;77.27;99833.13;5053600;28;45683;-82
2022/11/21 10:14:34;;;;;;;;;11.50;5.00;;;;;9.34;76.49;99818.91;5039410;28;45319;-82
2022/11/21 10:17:34;;;;;;;;;14.75;8.50;;;;;9.34;76.81;99816.31;5053811;28;45372;-83
2022/11/21 10:20:31;;;;;;;;;9.75;5.00;;;;;9.34;76.67;99798.13;5037415;28;45465;-82
2022/11/21 10:23:13;;;;;;;;;6.25;5.50;;;;;9.37;76.52;99800.63;5053225;28;45630;-82
2022/11/21 10:26:03;;;;;;;;;8.00;6.00;;;;;9.40;76.71;99784.94;5071372;28;46098;-82
2022/11/21 10:28:45;;;;;;;;;10.25;6.50;;;;;9.40;76.21;99773.72;5054449;28;45326;-82
2022/11/21 10:31:13;;;;;;;;;10.00;9.00;;;;;9.42;76.07;99766.69;5071945;28;45357;-81
2022/11/21 10:33:39;;;;;;;;;10.50;5.00;;;;;9.42;76.09;99759.75;5071516;28;45455;-80
2022/11/21 10:36:10;;;;;;;;;10.00;6.50;;;;;9.42;76.17;99764.94;5055453;28;46121;-81
2022/11/21 10:38:37;;;;;;;;;13.25;9.00;;;;;9.42;75.74;99769.28;5069659;27;45359;-81
2022/11/21 10:41:24;;;;;;;;;6.25;5.00;;;;;9.42;75.54;99757.16;5085603;27;45335;-81
2022/11/21 10:46:55;;;;;;;;;9.25;5.25;;;;;9.49;75.55;99731.78;5080840;27;45735;-80
2022/11/21 10:49:20;;;;;;;;;8.25;2.75;;;;;9.47;75.65;99720.59;5077848;27;45701;-81
2022/11/21 10:52:16;;;;;;;;;7.25;5.00;;;;;9.50;75.28;99712.69;5076990;27;61548;-81
2022/11/21 10:55:20;;;;;;;;;12.75;7.50;;;;;9.48;75.51;99714.50;5076462;27;45328;-82
2022/11/21 10:57:47;;;;;;;;;8.25;7.00;;;;;9.44;75.10;99698.19;5011858;28;73485;-80
2022/11/21 11:00:12;;;;;;;;;10.25;5.25;;;;;9.44;75.29;99697.34;5013213;28;45759;-81
2022/11/21 11:02:39;;;;;;;;;7.25;5.00;;;;;9.42;75.34;99692.22;5013057;28;45807;-79
2022/11/21 11:05:20;;;;;;;;;13.25;3.50;;;;;9.39;75.25;99694.91;4996360;28;45406;-80
2022/11/21 11:08:11;;;;;;;;;7.50;4.75;;;;;9.40;75.24;99691.44;5012850;28;46562;-80
2022/11/21 11:10:39;;;;;;;;;4.75;3.25;;;;;9.39;74.96;99691.50;5013004;28;45801;-81
2022/11/21 11:13:33;;;;;;;;;5.00;5.00;;;;;9.39;75.00;99694.91;5012815;28;45434;-81
2022/11/21 11:16:04;;;;;;;;;10.25;6.00;;;;;9.39;75.17;99686.28;4993629;28;45584;-81
2022/11/21 11:18:32;;;;;;;;;5.25;5.00;;;;;9.39;75.04;99679.34;5012275;28;46178;-79
2022/11/21 11:21:17;;;;;;;;;7.25;6.00;;;;;9.39;74.96;99668.13;4996200;28;45860;-79
2022/11/21 11:23:43;;;;;;;;;12.25;5.25;;;;;9.37;74.93;99668.16;4996449;28;45597;-81
2022/11/21 11:26:29;;;;;;;;;5.00;1.50;;;;;9.39;75.47;99668.94;4996372;28;45480;-78
2022/11/21 11:29:18;;;;;;;;;9.50;3.00;;;;;9.42;75.44;99648.06;5057556;27;45406;-78
2022/11/21 11:32:00;;;;;;;;;4.25;3.75;;;;;9.43;74.93;99647.13;5095816;27;45374;-79
2022/11/21 11:34:38;;;;;;;;;5.75;2.25;;;;;9.40;74.90;99629.09;5095390;27;45409;-77
2022/11/21 11:37:19;;;;;;;;;8.00;5.50;;;;;9.43;75.13;99615.97;5095761;27;45347;-79
2022/11/21 11:40:06;;;;;;;;;9.75;6.00;;;;;9.48;75.06;99598.44;5083881;27;46318;-80
2022/11/21 11:49:00;;;;;;;;;3.00;1.75;;;;;9.47;75.25;99563.00;5095171;27;45343;-79
2022/11/21 11:51:46;;;;;;;;;2.00;2.00;;;;;9.46;74.67;99534.47;5111121;27;45818;-80
2022/11/21 11:54:16;;;;;;;;;3.00;3.00;;;;;9.45;74.81;99506.81;5094234;27;45867;-78
2022/11/21 11:56:42;;;;;;;;;7.75;5.75;;;;;9.45;75.08;99502.47;5093935;27;45396;-77
2022/11/21 11:59:16;;;;;;;;;7.00;3.00;;;;;9.45;74.70;99480.84;5095811;27;45387;-79
2022/11/21 12:01:48;;;;;;;;;8.50;5.00;;;;;9.49;74.25;99474.63;5095180;27;45664;-79
2022/11/21 12:04:16;;;;;;;;;8.50;4.00;;;;;9.55;74.77;99470.91;5110704;27;45717;-80